Time;durP1;ratioP1;P1;durP2;ratioP2;P2;SDS_P1;SDS_P2;PMS_P1;PMS_P2;Temp;Humidity;BMP_temperature;BMP_pressure;BME280_temperature;BME280_humidity;BME280_pressure;Samples;Min_cycle;Max_cycle;Signal;HPM_P1;HPM_P2
2022/01/07 00:02:00;;;;;;;4.03;1.73;;;;;;;17.25;51.08;101249.44;4831983;29;20042;-76
2022/01/07 00:04:25;;;;;;;4.18;1.67;;;;;;;17.24;50.75;101245.09;4831403;29;20041;-76
2022/01/07 00:06:51;;;;;;;3.30;1.67;;;;;;;17.25;50.79;101252.03;4816501;29;20378;-76
2022/01/07 00:09:18;;;;;;;2.70;1.67;;;;;;;17.22;50.97;101239.91;4831333;29;20049;-77
2022/01/07 00:11:43;;;;;;;5.80;2.05;;;;;;;17.24;50.90;101239.91;4815925;29;20095;-76
2022/01/07 00:14:08;;;;;;;2.35;1.75;;;;;;;17.22;51.05;101237.31;4831356;29;20058;-76
2022/01/07 00:16:34;;;;;;;3.50;1.88;;;;;;;17.21;50.93;101238.16;4847350;29;20063;-76
2022/01/07 00:18:59;;;;;;;3.17;1.40;;;;;;;17.22;50.96;101233.81;4830319;29;20074;-76
2022/01/07 00:21:24;;;;;;;2.17;1.45;;;;;;;17.22;50.79;101233.81;4834257;29;20045;-77
2022/01/07 00:23:50;;;;;;;3.70;1.80;;;;;;;17.21;50.87;101219.97;4834074;29;20050;-76
2022/01/07 00:26:16;;;;;;;3.75;1.85;;;;;;;17.21;50.77;101219.09;4852571;29;20118;-76
2022/01/07 00:28:41;;;;;;;2.85;1.70;;;;;;;17.21;50.67;101214.75;4835468;29;20132;-76
2022/01/07 00:31:08;;;;;;;3.35;1.40;;;;;;;17.21;50.83;101208.69;4834599;29;20099;-76
2022/01/07 00:33:33;;;;;;;4.53;1.52;;;;;;;17.18;50.82;101201.78;4831981;29;20049;-76
2022/01/07 00:35:59;;;;;;;2.90;1.50;;;;;;;17.20;51.01;101205.25;4832105;29;20042;-76
2022/01/07 00:38:25;;;;;;;3.13;1.55;;;;;;;17.20;50.91;101191.34;4817532;29;20481;-76
2022/01/07 00:40:50;;;;;;;3.05;1.60;;;;;;;17.19;50.74;101193.09;4837867;29;20066;-76
2022/01/07 00:43:16;;;;;;;3.10;1.60;;;;;;;17.19;50.71;101190.50;4837207;29;20105;-77
2022/01/07 00:45:41;;;;;;;2.10;1.25;;;;;;;17.18;50.84;101186.16;4835635;29;20064;-76
2022/01/07 00:48:06;;;;;;;2.63;1.50;;;;;;;17.18;50.74;101180.97;4834531;29;20107;-76
2022/01/07 00:50:33;;;;;;;2.28;1.55;;;;;;;17.19;50.68;101181.81;4850450;29;20042;-76
2022/01/07 00:52:59;;;;;;;3.08;1.50;;;;;;;17.18;50.60;101180.09;4832840;29;20038;-77
2022/01/07 00:55:26;;;;;;;3.67;1.60;;;;;;;17.18;50.77;101173.16;4832587;29;20034;-76
2022/01/07 00:57:52;;;;;;;2.75;1.30;;;;;;;17.17;50.72;101161.03;4833122;29;20046;-76
2022/01/07 01:00:20;;;;;;;2.55;1.30;;;;;;;17.17;50.75;101165.38;4848165;29;20128;-76
2022/01/07 01:02:46;;;;;;;2.60;1.40;;;;;;;17.18;50.66;101165.38;4848022;29;20026;-77
2022/01/07 01:05:12;;;;;;;2.67;1.45;;;;;;;17.17;50.60;101162.75;4846354;29;20095;-76
2022/01/07 01:07:39;;;;;;;2.20;1.30;;;;;;;17.16;50.69;101155.81;4844290;29;20034;-76
2022/01/07 01:10:07;;;;;;;2.92;1.55;;;;;;;17.16;50.55;101159.31;4844671;29;20057;-77
2022/01/07 01:12:34;;;;;;;3.17;1.77;;;;;;;17.17;50.69;101157.56;4828872;29;20515;-76
2022/01/07 01:15:00;;;;;;;2.13;1.38;;;;;;;17.16;50.55;101161.00;4813415;29;20114;-76
2022/01/07 01:17:25;;;;;;;2.58;1.60;;;;;;;17.16;50.65;101158.41;4831233;29;20033;-77
2022/01/07 01:19:50;;;;;;;2.58;1.30;;;;;;;17.15;50.55;101151.50;4815632;29;20044;-76
2022/01/07 01:22:16;;;;;;;2.47;1.48;;;;;;;17.15;50.64;101143.69;4830783;29;20488;-76
2022/01/07 01:24:41;;;;;;;3.45;1.35;;;;;;;17.15;50.74;101141.94;4830629;29;20052;-76
2022/01/07 01:27:07;;;;;;;2.50;1.50;;;;;;;17.15;50.61;101138.50;4847031;29;20078;-76
2022/01/07 01:29:32;;;;;;;3.60;1.60;;;;;;;17.15;50.47;101141.09;4814059;29;20481;-76
2022/01/07 01:31:58;;;;;;;2.13;1.38;;;;;;;17.14;50.60;101128.97;4829799;29;20046;-76
2022/01/07 01:34:23;;;;;;;3.00;1.20;;;;;;;17.14;50.38;101122.03;4830112;29;20034;-76
2022/01/07 01:36:48;;;;;;;3.17;1.42;;;;;;;17.14;50.44;101113.38;4830250;29;20041;-76
2022/01/07 01:39:14;;;;;;;2.50;1.30;;;;;;;17.13;50.48;101117.69;4830594;29;20065;-76
2022/01/07 01:41:42;;;;;;;2.83;1.52;;;;;;;17.13;50.48;101109.88;4845909;29;20056;-76
2022/01/07 01:44:07;;;;;;;4.57;1.42;;;;;;;17.12;50.48;101115.97;4830356;29;20124;-77
2022/01/07 01:46:33;;;;;;;2.97;1.58;;;;;;;17.12;50.58;101110.78;4848046;29;20073;-77
2022/01/07 01:48:58;;;;;;;3.30;1.33;;;;;;;17.13;50.46;101107.28;4827675;29;20041;-76
2022/01/07 01:51:24;;;;;;;2.72;1.20;;;;;;;17.13;50.58;101106.44;4827596;29;20048;-76
2022/01/07 01:53:49;;;;;;;2.00;1.40;;;;;;;17.13;50.27;101106.44;4842706;29;20042;-76
2022/01/07 01:56:15;;;;;;;1.98;1.52;;;;;;;17.12;50.49;101102.13;4827872;29;20038;-76
2022/01/07 01:58:41;;;;;;;2.30;1.50;;;;;;;17.12;50.60;101102.13;4844516;29;20113;-76
2022/01/07 02:01:06;;;;;;;2.70;1.40;;;;;;;17.11;50.53;101097.75;4844837;29;20386;-76
2022/01/07 02:03:32;;;;;;;2.97;1.38;;;;;;;17.12;50.57;101096.91;4832181;29;20048;-76
2022/01/07 02:05:58;;;;;;;2.15;1.20;;;;;;;17.11;50.60;101097.75;4835836;29;20038;-76
2022/01/07 02:08:24;;;;;;;2.28;1.25;;;;;;;17.11;50.52;101090.81;4850057;29;20060;-76
2022/01/07 02:10:49;;;;;;;2.53;1.33;;;;;;;17.11;50.50;101092.56;4831324;29;20075;-76
2022/01/07 02:13:18;;;;;;;2.92;1.42;;;;;;;17.11;50.59;101084.75;4830499;29;20062;-76
2022/01/07 02:15:44;;;;;;;3.05;1.45;;;;;;;17.11;50.39;101082.16;4846170;29;20041;-76
2022/01/07 02:18:09;;;;;;;2.42;1.20;;;;;;;17.09;50.51;101069.16;4847362;29;20110;-76
2022/01/07 02:20:35;;;;;;;1.60;1.20;;;;;;;17.09;50.45;101063.09;4845470;29;20046;-76
2022/01/07 02:23:01;;;;;;;2.97;1.40;;;;;;;17.09;50.23;101053.56;4830060;29;20102;-77
2022/01/07 02:25:27;;;;;;;2.15;1.20;;;;;;;17.09;50.28;101045.75;4846357;29;20082;-77
2022/01/07 02:27:53;;;;;;;1.75;1.10;;;;;;;17.08;50.55;101045.78;4846858;29;20346;-76
2022/01/07 02:30:22;;;;;;;2.10;1.30;;;;;;;17.08;50.29;101046.63;4827361;29;20401;-76
2022/01/07 02:32:49;;;;;;;1.77;1.10;;;;;;;17.08;50.55;101032.78;4843174;29;20153;-76
2022/01/07 02:35:16;;;;;;;2.60;1.42;;;;;;;17.06;50.41;101033.63;4842672;29;20545;-76
2022/01/07 02:37:41;;;;;;;2.97;1.38;;;;;;;17.07;50.33;101039.69;4828543;29;20089;-76
2022/01/07 02:40:08;;;;;;;3.17;1.30;;;;;;;17.08;50.32;101040.59;4844459;29;20105;-78
2022/01/07 02:42:35;;;;;;;2.50;1.38;;;;;;;17.08;50.41;101035.38;4833078;29;20050;-78
2022/01/07 02:45:00;;;;;;;3.50;1.40;;;;;;;17.08;50.39;101040.59;4818857;29;20137;-77
2022/01/07 02:47:31;;;;;;;1.95;1.20;;;;;;;17.07;50.37;101034.50;4834186;29;20061;-77
2022/01/07 02:49:56;;;;;;;2.28;1.30;;;;;;;17.06;50.37;101032.78;4834194;29;20489;-78
2022/01/07 02:52:21;;;;;;;2.00;1.30;;;;;;;17.06;50.48;101027.59;4833916;29;20050;-77
2022/01/07 02:54:47;;;;;;;2.28;1.30;;;;;;;17.06;50.30;101014.56;4833796;29;20375;-78
2022/01/07 02:57:12;;;;;;;2.28;1.27;;;;;;;17.06;50.37;101024.97;4834174;29;20069;-78
2022/01/07 02:59:38;;;;;;;2.42;1.17;;;;;;;17.05;50.33;101021.53;4818102;29;20046;-77
2022/01/07 03:02:03;;;;;;;3.53;1.30;;;;;;;17.05;50.17;101029.31;4819728;29;20049;-77
2022/01/07 03:04:29;;;;;;;2.83;1.30;;;;;;;17.06;50.40;101032.78;4820623;29;20038;-77
2022/01/07 03:06:54;;;;;;;2.47;1.38;;;;;;;17.06;50.24;101019.78;4820201;29;20042;-77
2022/01/07 03:09:20;;;;;;;1.88;1.20;;;;;;;17.04;50.54;101006.78;4852227;29;20397;-77
2022/01/07 03:11:45;;;;;;;1.67;1.20;;;;;;;17.05;50.30;101007.66;4818664;29;20040;-77
2022/01/07 03:14:11;;;;;;;2.15;1.35;;;;;;;17.05;50.18;101002.47;4853694;29;20057;-77
2022/01/07 03:16:38;;;;;;;2.05;1.30;;;;;;;17.04;50.21;101001.56;4823120;29;20397;-77
2022/01/07 03:19:04;;;;;;;1.95;1.20;;;;;;;17.03;50.30;100997.25;4823245;29;20497;-77
2022/01/07 03:21:29;;;;;;;3.85;1.42;;;;;;;17.04;50.34;100998.13;4852265;29;20050;-77
2022/01/07 03:23:54;;;;;;;2.58;1.30;;;;;;;17.03;50.27;100989.47;4836341;29;20050;-77
2022/01/07 03:26:20;;;;;;;3.88;1.40;;;;;;;17.04;50.18;100985.13;4836013;29;20061;-77
2022/01/07 03:28:47;;;;;;;1.70;1.10;;;;;;;17.02;50.41;100979.06;4835429;29;20046;-77
2022/01/07 03:31:12;;;;;;;2.33;1.40;;;;;;;17.03;50.17;100981.66;4820592;29;20054;-77
2022/01/07 03:33:37;;;;;;;2.00;1.20;;;;;;;17.03;50.04;100973.00;4853243;29;20170;-78
2022/01/07 03:36:03;;;;;;;2.22;1.10;;;;;;;17.01;50.04;100973.00;4820894;29;20136;-78
2022/01/07 03:38:29;;;;;;;1.60;1.10;;;;;;;17.02;50.17;100972.13;4836905;29;20065;-78
2022/01/07 03:40:55;;;;;;;1.92;1.10;;;;;;;17.02;50.20;100958.25;4853485;29;20038;-78
2022/01/07 03:43:20;;;;;;;2.30;1.20;;;;;;;17.02;50.25;100964.31;4852570;29;20046;-78
2022/01/07 03:45:45;;;;;;;3.58;1.65;;;;;;;17.01;50.08;100957.41;4836185;29;20038;-78
2022/01/07 03:48:11;;;;;;;1.90;1.10;;;;;;;17.02;50.14;100958.25;4834788;29;20068;-78
2022/01/07 03:50:37;;;;;;;1.90;1.20;;;;;;;17.01;50.09;100952.22;4819635;29;20102;-78
2022/01/07 03:53:02;;;;;;;2.17;1.13;;;;;;;17.01;50.16;100951.34;4831909;29;20054;-77
2022/01/07 03:55:29;;;;;;;1.40;1.08;;;;;;;17.01;50.26;100951.34;4829551;29;20040;-78
2022/01/07 03:57:55;;;;;;;2.80;1.38;;;;;;;17.00;50.30;100949.59;4846747;29;20106;-77
2022/01/07 04:00:34;;;;;;;2.17;1.33;;;;;;;17.00;50.19;100941.81;4848137;29;20061;-77
2022/01/07 04:03:10;;;;;;;2.25;1.10;;;;;;;17.00;50.20;100939.22;4831602;29;20041;-78
2022/01/07 04:05:35;;;;;;;1.70;1.20;;;;;;;17.00;49.94;100934.00;4849064;29;20030;-78
2022/01/07 04:08:01;;;;;;;1.73;1.20;;;;;;;16.99;50.13;100921.91;4818478;29;20034;-77
2022/01/07 04:10:26;;;;;;;1.95;1.20;;;;;;;16.99;50.10;100930.56;4817521;29;20041;-78
2022/01/07 04:12:52;;;;;;;1.85;1.13;;;;;;;16.99;50.14;100921.91;4833217;29;20124;-78
2022/01/07 04:15:18;;;;;;;1.65;1.00;;;;;;;16.99;50.10;100929.69;4817262;29;20102;-77
2022/01/07 04:17:50;;;;;;;2.30;1.30;;;;;;;16.99;50.08;100927.09;4832829;29;20058;-77
2022/01/07 04:20:21;;;;;;;2.25;1.30;;;;;;;16.98;50.22;100920.16;4849440;29;20045;-77
2022/01/07 04:22:47;;;;;;;1.70;1.10;;;;;;;16.98;50.28;100912.34;4848084;29;20113;-77
2022/01/07 04:25:17;;;;;;;1.83;1.25;;;;;;;16.97;49.92;100916.69;4848077;29;20046;-77
2022/01/07 04:27:44;;;;;;;1.83;1.25;;;;;;;16.97;50.25;100914.09;4848704;29;20133;-77
2022/01/07 04:30:10;;;;;;;1.83;1.10;;;;;;;16.98;50.30;100923.59;4847224;29;20040;-77
2022/01/07 04:32:37;;;;;;;2.25;1.08;;;;;;;16.98;50.14;100925.34;4849089;29;20048;-77
2022/01/07 04:35:03;;;;;;;3.15;1.40;;;;;;;16.97;50.08;100916.69;4832821;29;20042;-77
2022/01/07 04:37:29;;;;;;;1.80;1.08;;;;;;;16.97;49.93;100921.91;4834673;29;20045;-77
2022/01/07 04:39:54;;;;;;;2.53;1.25;;;;;;;16.97;50.10;100928.84;4835799;29;20134;-77
2022/01/07 04:42:19;;;;;;;2.05;1.10;;;;;;;16.96;50.15;100925.38;4818100;29;20041;-77
2022/01/07 04:44:45;;;;;;;2.13;1.20;;;;;;;16.96;50.00;100940.97;4818590;29;20049;-77
2022/01/07 04:47:10;;;;;;;2.45;1.20;;;;;;;16.95;50.16;100926.25;4819474;29;20045;-77
2022/01/07 04:49:36;;;;;;;3.47;1.25;;;;;;;16.96;50.10;100927.09;4850348;29;20120;-77
2022/01/07 04:52:04;;;;;;;1.95;1.20;;;;;;;16.95;50.01;100923.63;4834175;29;20045;-77
2022/01/07 04:54:29;;;;;;;2.35;1.20;;;;;;;16.95;50.17;100930.59;4847888;29;20030;-76
2022/01/07 04:56:55;;;;;;;2.67;1.30;;;;;;;16.96;50.31;100927.97;4846795;29;20133;-76
2022/01/07 04:59:20;;;;;;;1.80;1.17;;;;;;;16.95;50.22;100925.38;4814951;29;20094;-76
2022/01/07 05:01:47;;;;;;;2.97;1.20;;;;;;;16.95;50.08;100918.44;4829748;29;20145;-76
2022/01/07 05:04:12;;;;;;;2.05;1.10;;;;;;;16.95;50.22;100927.97;4816988;29;20046;-77
2022/01/07 05:09:03;;;;;;;2.60;1.40;;;;;;;16.95;50.03;100931.44;4833107;29;20094;-77
2022/01/07 05:11:29;;;;;;;2.00;1.27;;;;;;;16.94;50.19;100931.44;4816968;29;20061;-77
2022/01/07 05:13:54;;;;;;;2.15;1.30;;;;;;;16.93;50.13;100933.19;4830334;29;20066;-78
2022/01/07 05:16:20;;;;;;;2.28;1.38;;;;;;;16.93;50.07;100927.13;4833335;29;20052;-78
2022/01/07 05:18:45;;;;;;;2.47;1.30;;;;;;;16.93;50.16;100933.19;4827779;29;20034;-78
2022/01/07 05:21:10;;;;;;;2.42;1.27;;;;;;;16.93;50.21;100927.97;4812988;29;20050;-77
2022/01/07 05:23:36;;;;;;;1.77;1.20;;;;;;;16.92;50.20;100918.47;4843668;29;20174;-77
2022/01/07 05:26:03;;;;;;;1.90;1.10;;;;;;;16.92;49.98;100922.78;4813110;29;20124;-77
2022/01/07 05:28:28;;;;;;;2.22;1.20;;;;;;;16.91;50.01;100916.72;4828745;29;20042;-77
2022/01/07 05:30:54;;;;;;;2.17;1.20;;;;;;;16.91;50.20;100929.72;4813600;29;20057;-77
2022/01/07 05:33:19;;;;;;;2.65;1.05;;;;;;;16.91;50.17;100923.66;4845283;29;20070;-76
2022/01/07 05:35:44;;;;;;;3.22;1.15;;;;;;;16.91;49.91;100921.06;4829964;29;20118;-77
2022/01/07 05:38:10;;;;;;;1.98;1.13;;;;;;;16.91;50.19;100921.91;4815576;29;20178;-77
2022/01/07 05:40:35;;;;;;;2.60;1.25;;;;;;;16.91;50.09;100913.28;4813694;29;20141;-77
2022/01/07 05:43:00;;;;;;;2.80;1.30;;;;;;;16.89;49.83;100921.06;4814457;29;20099;-76
2022/01/07 05:45:26;;;;;;;2.00;1.10;;;;;;;16.90;50.17;100916.72;4832077;29;20057;-77
2022/01/07 05:47:51;;;;;;;2.40;1.20;;;;;;;16.90;50.35;100912.41;4821102;29;20070;-77
2022/01/07 05:50:16;;;;;;;2.42;1.27;;;;;;;16.90;50.05;100917.63;4835999;29;20106;-77
2022/01/07 05:52:42;;;;;;;2.08;1.35;;;;;;;16.90;50.10;100919.31;4832099;29;20117;-77
2022/01/07 05:55:08;;;;;;;3.33;1.40;;;;;;;16.90;49.92;100919.31;4816897;29;20030;-77
2022/01/07 05:57:35;;;;;;;2.53;1.25;;;;;;;16.91;50.02;100921.06;4832902;29;20049;-77
2022/01/07 06:00:01;;;;;;;3.72;1.40;;;;;;;16.91;50.03;100918.47;4829864;29;20516;-77
2022/01/07 06:02:26;;;;;;;3.00;1.40;;;;;;;16.89;49.97;100918.47;4814411;29;20042;-77
2022/01/07 06:04:51;;;;;;;2.20;1.30;;;;;;;16.89;50.04;100915.00;4830738;29;20048;-77
2022/01/07 06:07:17;;;;;;;2.38;1.20;;;;;;;16.91;50.24;100924.53;4834049;29;20046;-76
2022/01/07 06:09:42;;;;;;;1.95;1.20;;;;;;;16.92;50.24;100912.38;4818068;29;20050;-79
2022/01/07 06:12:09;;;;;;;2.45;1.38;;;;;;;16.91;50.20;100916.72;4817648;29;20046;-76
2022/01/07 06:14:34;;;;;;;2.25;1.20;;;;;;;16.92;50.39;100918.47;4831907;29;20049;-78
2022/01/07 06:17:00;;;;;;;2.33;1.33;;;;;;;16.93;50.41;100916.72;4831799;29;20490;-77
2022/01/07 06:19:25;;;;;;;1.90;1.08;;;;;;;16.92;50.43;100921.06;4815333;29;20037;-76
2022/01/07 06:21:50;;;;;;;3.22;1.60;;;;;;;16.93;50.42;100919.31;4816443;29;20075;-77
2022/01/07 06:24:16;;;;;;;4.20;1.75;;;;;;;16.94;50.64;100923.63;4831219;29;20387;-76
2022/01/07 06:26:41;;;;;;;3.35;1.42;;;;;;;16.94;50.61;100929.72;4849463;29;20042;-77
2022/01/07 06:29:07;;;;;;;3.00;1.50;;;;;;;16.95;50.51;100922.78;4818920;29;20575;-77
2022/01/07 06:31:32;;;;;;;3.53;1.50;;;;;;;16.95;50.59;100914.97;4833967;29;20050;-77
2022/01/07 06:33:58;;;;;;;3.15;1.58;;;;;;;16.95;50.71;100918.44;4816624;29;20062;-77
2022/01/07 06:36:25;;;;;;;3.75;1.70;;;;;;;16.96;50.63;100925.38;4831851;29;20077;-77
2022/01/07 06:38:51;;;;;;;4.95;1.63;;;;;;;16.96;50.72;100920.19;4832860;29;20416;-77
2022/01/07 06:41:16;;;;;;;3.60;1.60;;;;;;;16.96;50.88;100909.78;4843061;29;20110;-77
2022/01/07 06:43:43;;;;;;;3.13;1.40;;;;;;;16.98;50.67;100925.34;4812929;29;20402;-77
2022/01/07 06:46:09;;;;;;;5.18;1.55;;;;;;;16.97;50.81;100914.09;4829327;29;20042;-78
2022/01/07 06:48:34;;;;;;;2.75;1.40;;;;;;;16.96;50.93;100911.50;4829037;29;20046;-77
2022/01/07 06:50:59;;;;;;;5.20;1.70;;;;;;;16.98;50.84;100913.22;4815286;29;20055;-78
2022/01/07 06:53:25;;;;;;;4.78;1.63;;;;;;;16.98;50.87;100913.22;4830351;29;20046;-78
2022/01/07 06:55:50;;;;;;;4.85;1.60;;;;;;;16.98;50.90;100917.56;4845378;29;20062;-78
2022/01/07 06:58:16;;;;;;;4.75;1.55;;;;;;;16.98;51.09;100912.34;4815119;29;20054;-78
2022/01/07 07:00:41;;;;;;;3.42;1.60;;;;;;;16.98;50.88;100913.22;4830453;29;20122;-77
2022/01/07 07:03:06;;;;;;;5.65;1.67;;;;;;;16.99;51.04;100906.28;4830520;29;20048;-77
2022/01/07 07:05:32;;;;;;;2.50;1.48;;;;;;;16.99;51.01;100901.09;4830108;29;20077;-78
2022/01/07 07:07:57;;;;;;;3.80;1.48;;;;;;;16.98;51.09;100900.22;4830331;29;20106;-77
2022/01/07 07:10:22;;;;;;;2.35;1.40;;;;;;;16.98;51.11;100897.59;4834488;29;20037;-77
2022/01/07 07:12:48;;;;;;;3.55;1.38;;;;;;;16.99;51.26;100899.34;4835280;29;20046;-77
2022/01/07 07:15:13;;;;;;;3.03;1.50;;;;;;;16.98;51.00;100894.16;4819530;29;20062;-77
2022/01/07 07:17:39;;;;;;;2.63;1.50;;;;;;;16.99;51.39;100895.91;4819111;29;20041;-77
2022/01/07 07:20:04;;;;;;;3.45;1.50;;;;;;;16.99;51.10;100895.91;4833261;29;20045;-78
2022/01/07 07:22:30;;;;;;;3.58;1.60;;;;;;;16.99;51.05;100907.16;4815144;29;20045;-77
2022/01/07 07:24:56;;;;;;;2.72;1.52;;;;;;;16.99;51.32;100895.91;4844162;29;20042;-76
2022/01/07 07:27:21;;;;;;;3.95;1.67;;;;;;;16.99;51.28;100896.75;4830259;29;20386;-76
2022/01/07 07:29:46;;;;;;;3.10;1.70;;;;;;;17.00;51.55;100895.88;4850408;29;20049;-78
2022/01/07 07:32:14;;;;;;;3.08;1.63;;;;;;;16.99;51.41;100904.56;4834049;29;20052;-77
2022/01/07 07:37:07;;;;;;;3.20;1.23;;;;;;;17.00;51.36;100895.00;4834499;29;20040;-76
2022/01/07 07:39:33;;;;;;;2.80;1.38;;;;;;;17.01;51.36;100897.63;4833684;29;20034;-77
2022/01/07 07:41:58;;;;;;;2.33;1.40;;;;;;;16.99;51.30;100899.34;4850384;29;20058;-77
2022/01/07 07:44:24;;;;;;;2.60;1.38;;;;;;;17.00;51.18;100911.47;4819244;29;20074;-77
2022/01/07 07:46:49;;;;;;;3.75;1.63;;;;;;;17.00;51.52;100905.41;4833849;29;20042;-77
2022/01/07 07:49:15;;;;;;;3.65;1.40;;;;;;;17.01;51.32;100904.56;4849814;29;20053;-77
2022/01/07 07:51:41;;;;;;;3.30;1.40;;;;;;;17.00;51.47;100903.66;4833360;29;20041;-77
2022/01/07 07:54:08;;;;;;;2.53;1.42;;;;;;;17.00;51.33;100911.47;4833163;29;20042;-76
2022/01/07 07:56:33;;;;;;;2.90;1.55;;;;;;;17.00;51.34;100908.88;4848969;29;20045;-77
2022/01/07 07:58:59;;;;;;;2.75;1.38;;;;;;;17.01;51.40;100910.59;4831034;29;20046;-76
2022/01/07 08:01:27;;;;;;;2.63;1.48;;;;;;;17.01;51.44;100914.94;4830639;29;20485;-77
2022/01/07 08:03:52;;;;;;;2.17;1.10;;;;;;;17.01;51.28;100915.81;4849214;29;20062;-77
2022/01/07 08:06:18;;;;;;;2.45;1.38;;;;;;;17.01;51.20;100922.75;4829046;29;20045;-77
2022/01/07 08:08:43;;;;;;;1.77;1.17;;;;;;;17.01;51.28;100921.00;4814010;29;20042;-77
2022/01/07 08:11:11;;;;;;;1.73;1.10;;;;;;;17.01;51.23;100921.00;4844091;29;20038;-77
2022/01/07 08:16:23;;;;;;;;;;;;;;;17.02;51.19;100922.72;4846452;29;20041;-78
2022/01/07 08:18:51;;;;;;;2.38;1.17;;;;;;;17.02;51.50;100922.72;4814602;29;19916;-77
2022/01/07 08:21:17;;;;;;;1.92;1.38;;;;;;;17.05;51.30;100929.66;4849923;29;20042;-78
2022/01/07 08:23:44;;;;;;;2.15;1.40;;;;;;;17.09;51.29;100920.09;4853760;29;20038;-77
2022/01/07 08:26:11;;;;;;;2.47;1.30;;;;;;;17.13;51.24;100919.19;4853330;29;20033;-78
2022/01/07 08:28:45;;;;;;;2.67;1.40;;;;;;;17.15;51.32;100927.84;4835843;29;20046;-78
2022/01/07 08:36:26;;;;;;;1.73;1.10;;;;;;;17.13;50.94;100922.66;4835769;29;20151;-77
2022/01/07 08:38:52;;;;;;;2.40;1.20;;;;;;;17.15;51.21;100922.66;4847040;29;20132;-78
2022/01/07 08:41:20;;;;;;;3.03;1.20;;;;;;;17.15;51.21;100920.91;4848256;29;20080;-77
2022/01/07 08:43:45;;;;;;;2.95;1.27;;;;;;;17.16;50.97;100916.56;4848109;29;20106;-77
2022/01/07 08:46:11;;;;;;;2.80;1.20;;;;;;;17.15;51.30;100918.31;4816219;29;20507;-78
2022/01/07 08:48:37;;;;;;;3.78;1.40;;;;;;;17.16;51.04;100921.78;4828768;29;20065;-78
2022/01/07 08:51:05;;;;;;;3.17;1.00;;;;;;;17.14;51.09;100920.94;4829064;29;20052;-78
2022/01/07 08:53:30;;;;;;;3.28;1.30;;;;;;;17.13;51.04;100919.19;4829630;29;20049;-78
2022/01/07 08:55:55;;;;;;;2.63;1.25;;;;;;;17.11;51.17;100921.81;4845232;29;20026;-78
2022/01/07 08:58:21;;;;;;;2.55;1.35;;;;;;;17.11;50.99;100913.16;4815121;29;20075;-77
2022/01/07 09:00:47;;;;;;;1.73;1.10;;;;;;;17.11;51.13;100915.75;4820231;29;20382;-78
2022/01/07 09:03:13;;;;;;;2.55;1.30;;;;;;;17.11;51.20;100913.16;4833919;29;20042;-78
2022/01/07 09:05:38;;;;;;;2.10;1.30;;;;;;;17.11;51.28;100916.59;4834269;29;20041;-78
2022/01/07 09:08:07;;;;;;;2.15;1.02;;;;;;;17.11;51.38;100911.41;4818252;29;20038;-78
2022/01/07 09:10:32;;;;;;;3.42;1.20;;;;;;;17.12;51.34;100917.50;4831351;29;20042;-77
2022/01/07 09:12:58;;;;;;;4.90;1.20;;;;;;;17.11;51.20;100911.41;4831891;29;20553;-78
2022/01/07 09:15:23;;;;;;;3.47;1.38;;;;;;;17.12;51.16;100923.53;4833352;29;20098;-77
2022/01/07 09:17:49;;;;;;;2.75;1.23;;;;;;;17.13;51.27;100920.06;4816469;29;20128;-77
2022/01/07 09:20:15;;;;;;;2.10;1.17;;;;;;;17.13;51.05;100921.81;4816743;29;20094;-78
2022/01/07 09:22:41;;;;;;;3.60;1.00;;;;;;;17.11;51.22;100921.81;4817116;29;20042;-78
2022/01/07 09:25:07;;;;;;;3.40;1.17;;;;;;;17.10;51.00;100914.91;4831518;29;20397;-77
2022/01/07 09:27:32;;;;;;;3.30;1.05;;;;;;;17.11;51.25;100920.94;4831529;29;20413;-77
2022/01/07 09:29:58;;;;;;;2.75;1.30;;;;;;;17.10;51.29;100919.22;4845265;29;20046;-78
2022/01/07 09:32:23;;;;;;;2.83;1.20;;;;;;;17.09;51.23;100922.69;4829506;29;20481;-78
2022/01/07 09:34:49;;;;;;;3.03;1.20;;;;;;;17.11;51.14;100918.34;4830320;29;20133;-78
2022/01/07 09:37:14;;;;;;;3.28;1.10;;;;;;;17.11;51.05;100919.19;4815249;29;20073;-78
2022/01/07 09:39:40;;;;;;;2.38;1.20;;;;;;;17.12;50.81;100923.53;4830956;29;20054;-78
2022/01/07 09:42:06;;;;;;;2.42;1.10;;;;;;;17.16;51.21;100927.84;4850853;29;20043;-78
2022/01/07 09:44:37;;;;;;;1.98;0.90;;;;;;;17.18;51.16;100918.31;4836256;29;20034;-77
2022/01/07 09:47:02;;;;;;;2.20;1.20;;;;;;;17.18;51.22;100923.50;4834043;29;20448;-77
2022/01/07 09:49:33;;;;;;;2.38;0.98;;;;;;;17.21;51.05;100920.88;4819936;29;20113;-82
2022/01/07 09:51:59;;;;;;;2.67;1.13;;;;;;;17.40;50.52;100925.97;4834759;29;20026;-82
2022/01/07 09:54:25;;;;;;;3.90;1.30;;;;;;;17.56;50.48;100924.09;4864258;29;20024;-82
2022/01/07 09:56:51;;;;;;;3.08;1.10;;;;;;;17.71;50.53;100928.31;4846574;29;20038;-78
2022/01/07 09:59:17;;;;;;;4.22;1.40;;;;;;;17.95;50.15;100922.06;4849054;29;20042;-78
2022/01/07 10:01:56;;;;;;;5.80;1.55;;;;;;;18.07;50.56;100915.00;4848148;29;20042;-78
2022/01/07 10:04:37;;;;;;;8.40;1.83;;;;;;;18.03;51.32;100910.69;4847543;29;20034;-78
2022/01/07 10:07:26;;;;;;;8.88;1.90;;;;;;;17.95;52.51;100917.72;4847823;29;20106;-77
2022/01/07 10:10:00;;;;;;;8.00;2.08;;;;;;;17.85;52.14;100922.13;4829704;29;20034;-78
2022/01/07 10:12:27;;;;;;;9.60;2.63;;;;;;;17.81;52.98;100922.13;4828375;29;20408;-79
2022/01/07 10:15:17;;;;;;;25.88;6.80;;;;;;;17.81;53.02;100923.03;4813977;29;20058;-78
2022/01/07 10:17:55;;;;;;;30.05;9.20;;;;;;;17.83;52.84;100926.50;4830379;29;20038;-76
2022/01/07 10:20:27;;;;;;;24.63;7.28;;;;;;;17.80;52.67;100918.69;4830588;29;20034;-77
2022/01/07 10:22:55;;;;;;;18.95;5.47;;;;;;;17.80;52.59;100923.03;4846811;29;20037;-77
2022/01/07 10:25:22;;;;;;;16.95;4.95;;;;;;;17.84;52.44;100925.63;4844735;29;20038;-76
2022/01/07 10:27:48;;;;;;;17.63;5.35;;;;;;;17.93;52.11;100916.88;4845361;29;20062;-76
2022/01/07 10:30:17;;;;;;;16.63;4.32;;;;;;;17.95;51.90;100916.84;4828920;29;20137;-76
2022/01/07 10:32:42;;;;;;;10.98;3.97;;;;;;;17.96;52.03;100916.81;4830752;29;20042;-77
2022/01/07 10:35:19;;;;;;;14.57;4.00;;;;;;;18.00;52.23;100909.84;4846819;29;20045;-78
2022/01/07 10:37:53;;;;;;;13.75;4.50;;;;;;;18.05;52.38;100918.47;4829085;29;20069;-78
2022/01/07 10:40:21;;;;;;;12.98;4.03;;;;;;;18.04;52.14;100920.22;4829616;29;20065;-79
2022/01/07 10:42:46;;;;;;;14.40;4.20;;;;;;;18.02;52.09;100914.16;4833532;29;20405;-79
2022/01/07 10:45:12;;;;;;;14.00;4.10;;;;;;;18.03;52.00;100915.91;4844864;29;20046;-77
2022/01/07 10:47:37;;;;;;;12.60;3.67;;;;;;;18.11;51.95;100914.94;4814806;29;20049;-76
2022/01/07 10:50:13;;;;;;;8.70;3.20;;;;;;;18.16;51.85;100915.75;4831358;29;20045;-76
2022/01/07 10:52:39;;;;;;;10.40;3.33;;;;;;;18.18;51.30;100911.41;4827433;29;20041;-76
2022/01/07 10:55:12;;;;;;;10.43;3.40;;;;;;;18.16;51.69;100908.81;4849322;29;20030;-78
2022/01/07 10:57:41;;;;;;;11.90;3.78;;;;;;;18.12;51.53;100907.13;4835495;29;20577;-79
2022/01/07 11:00:10;;;;;;;12.73;3.33;;;;;;;18.12;51.43;100908.84;4832809;29;20073;-78
2022/01/07 11:02:35;;;;;;;9.38;3.13;;;;;;;18.11;51.35;100909.75;4850192;29;20130;-78
2022/01/07 11:05:01;;;;;;;7.53;2.95;;;;;;;18.05;51.25;100911.53;4819185;29;20065;-77
2022/01/07 11:07:28;;;;;;;9.40;3.30;;;;;;;18.03;51.40;100904.59;4849110;29;20494;-76
2022/01/07 11:09:57;;;;;;;7.60;2.80;;;;;;;18.00;51.29;100907.25;4849241;29;20041;-76
2022/01/07 11:12:24;;;;;;;8.05;3.10;;;;;;;18.01;51.28;100911.59;4849231;29;20042;-78
2022/01/07 11:14:49;;;;;;;7.00;2.40;;;;;;;18.04;51.46;100909.81;4818370;29;20093;-78
2022/01/07 11:17:21;;;;;;;9.23;2.90;;;;;;;18.11;51.28;100900.19;4849079;29;20058;-78
2022/01/07 11:19:52;;;;;;;5.68;2.40;;;;;;;18.19;50.88;100895.75;4850541;29;20042;-78
2022/01/07 11:22:21;;;;;;;8.88;3.00;;;;;;;18.23;50.83;100917.44;4850211;29;20558;-78
2022/01/07 11:24:56;;;;;;;6.55;2.42;;;;;;;18.19;51.02;100908.78;4847624;29;20501;-78
2022/01/07 11:27:26;;;;;;;7.45;2.80;;;;;;;18.20;51.08;100914.84;4850411;29;20042;-78
2022/01/07 11:30:04;;;;;;;6.43;2.47;;;;;;;18.19;51.07;100910.53;4833014;29;20034;-78
2022/01/07 11:32:33;;;;;;;5.10;2.08;;;;;;;18.14;50.94;100917.50;4836895;29;20421;-78
2022/01/07 11:35:16;;;;;;;8.30;2.42;;;;;;;18.12;50.76;100901.03;4830256;29;20105;-78